Accueil
METAR-TAF:

METAR-TAF

Aéroports :

Aéroport d'Iakoutsk

Iakoutsk, Russie

latitude: 62-01N, longitude: 129-43E, altitude: 103 m

Observation

Le bulletin a été fait il y a 28 minutes, à 05:00 UTC
Vent 2 kt de sud-est
Température -41°C
Humidité 65%
Pression 1032 hPa
Visibilité: 0400 m
brouillard

METAR: UEEE 160500Z 14001MPS 0450 0400NE R23L/0450U FG VV004 M41/M45 Q1032 R23L/490150 NOSIG RMK QBB130 QFE765

Heure: 14:28 (05:28 UTC)

Prévision

Le bulletin a été fait il y a 3 heures et 28 minutes, à 02:00 UTC
Prévision valable du 16 à 03 UTC au 17 à 09 UTC
Vent 2 kt de direction variable
Visibilité: 0350 m
à une hauteur de 300 ft
brouillard
Temporairement
du 16 à 03 UTC au 16 à 18 UTC
Visibilité: 0800 m
brouillard

TAF: UEEE 160200Z 1603/1709 VRB01MPS 0350 FG VV003 TXM39/1607Z TNM42/1603Z TEMPO 1603/1618 0800 FG NSC

Observations et prévisions météorologiques de plus de 4000 aéroports (messages METAR et TAF).

Les stations disponibles sont représentées par des disques jaunes et rouges sur la carte.

Passer la souris dessus pour voir le nom de la station.

Cliquer dessus pour voir les observations et prévisions météorologiques.

Pour changer de carte: cliquez sur les boutons verts avec une croix noire pour zoomer, sur le bouton vert avec un tiret pour effectuer un zoom arrière, ou sur les flèches vertes pour les cartes adjacentes.


METAR-TAF: